메인 페이지
METAR-TAF:

METAR-TAF

공항 :

풀코보 국제공항

상트페테르부르크, 러시아

위도: 59-58N, 경도: 030-18E, 고도: 4m

현재 날씨관측

예보는 28분 전, 03:00시(UTC)에 발표되었습니다.
무풍
온도 13°C
습도 88%
기압 1022 hPa
시정 10km 이상
낮은 안개

METAR: ULLI 170300Z 00000MPS 9999 MIFG NSC 13/11 Q1022 R10L/090060 NOSIG

시각: 06:28 (03:28 UTC)

예보

예보는 1 시간 29분 전, 01:59시(UTC)에 발표되었습니다.
예보 대상 시간: 17일 03시부터 18일 03시까지 (UTC)
6kt
시정 10km 이상
고도 4000ft 상공 구름 보통
일시적
17일 03시부터 17일 04시까지 (UTC)
시정: 3100m
낮은 안개, 박무
일시적
17일 11시부터 17일 21시까지 (UTC)
남남서6kt
고도 2000ft 상공 구름 많음

TAF: ULLI 170159Z 1703/1803 18003MPS 9999 SCT040 TEMPO 1703/1704 3100 MIFG BR TEMPO 1711/1721 21003MPS BKN020

4,000개 이상의 공항 관측 자료 및 예보 (METAR 및 TAF 보고).

지도상에서 검색 가능한 기상관측소가 노란 점과 빨간 점으로 표시되어 있습니다.

기상관측소 명을 보려면 표시 위로 마우스를 이동하세요.

날씨 관측과 예보를 보려면 클릭하세요.

지도 변경 : 확대하려면 엑스 표시가 있는 녹색 버튼, 축소하려면 빼기 표시가 있는 녹색 버튼, 다음 페이지의 지도를 보려면 녹색 화살표를 클릭하세요.


METAR-TAF: